Time;durP1;ratioP1;P1;durP2;ratioP2;P2;SDS_P1;SDS_P2;PMS_P1;PMS_P2;Temp;Humidity;BMP_temperature;BMP_pressure;BME280_temperature;BME280_humidity;BME280_pressure;Samples;Min_cycle;Max_cycle;Signal;HPM_P1;HPM_P2
2023/08/19 00:00:23;;;;;;;30.10;17.65;;;;;;;23.77;100.00;100064.53;5022187;28;20124;-62
2023/08/19 00:02:49;;;;;;;26.27;14.88;;;;;;;23.81;100.00;100049.34;5028331;28;20037;-60
2023/08/19 00:05:14;;;;;;;22.90;15.65;;;;;;;23.74;100.00;100060.50;5020773;28;20056;-62
2023/08/19 00:07:40;;;;;;;19.90;13.10;;;;;;;23.64;100.00;100052.47;5021842;28;20621;-59
2023/08/19 00:10:06;;;;;;;21.80;13.38;;;;;;;23.58;100.00;100059.84;5023738;28;20041;-61
2023/08/19 00:12:31;;;;;;;18.38;12.20;;;;;;;23.74;100.00;100049.69;5027620;28;20533;-63
2023/08/19 00:14:57;;;;;;;21.20;12.20;;;;;;;23.60;100.00;100060.38;5015661;28;20038;-61
2023/08/19 00:17:23;;;;;;;14.80;11.20;;;;;;;23.59;100.00;100066.84;5023861;28;20490;-63
2023/08/19 00:19:50;;;;;;;14.18;10.30;;;;;;;23.24;100.00;100089.69;5020761;28;20448;-61
2023/08/19 00:22:15;;;;;;;15.00;10.15;;;;;;;23.48;100.00;100062.66;5017829;28;20092;-62
2023/08/19 00:24:40;;;;;;;18.90;11.02;;;;;;;23.55;100.00;100079.38;5020247;28;20030;-60
2023/08/19 00:27:06;;;;;;;13.18;10.23;;;;;;;23.92;100.00;100057.03;5023417;28;20506;-62
2023/08/19 00:29:31;;;;;;;12.48;7.55;;;;;;;24.04;100.00;100053.13;5014568;28;20168;-61
2023/08/19 00:31:56;;;;;;;11.98;9.07;;;;;;;23.94;100.00;100060.25;5021352;28;20057;-63
2023/08/19 00:34:22;;;;;;;13.27;8.73;;;;;;;23.77;100.00;100064.53;5020506;28;20082;-59
2023/08/19 00:36:48;;;;;;;12.00;8.05;;;;;;;23.81;100.00;100060.16;5025726;28;20082;-58
2023/08/19 00:39:13;;;;;;;10.30;7.75;;;;;;;23.67;100.00;100051.88;5024167;28;20025;-59
2023/08/19 00:41:39;;;;;;;8.48;6.95;;;;;;;23.80;100.00;100064.78;5022200;28;20444;-61
2023/08/19 00:44:04;;;;;;;10.48;6.40;;;;;;;23.86;100.00;100055.50;5022303;28;20028;-62
2023/08/19 00:46:30;;;;;;;12.85;7.05;;;;;;;23.91;100.00;100050.00;5027802;28;20030;-57
2023/08/19 00:48:57;;;;;;;6.95;6.07;;;;;;;23.88;100.00;100050.59;5020295;28;20034;-59
2023/08/19 00:51:22;;;;;;;11.15;6.30;;;;;;;23.87;100.00;100059.00;5016853;28;20112;-57
2023/08/19 00:53:48;;;;;;;7.22;4.97;;;;;;;23.90;100.00;100061.91;5019222;28;20048;-61
2023/08/19 00:56:14;;;;;;;8.88;5.93;;;;;;;23.94;100.00;100037.81;5018198;28;20072;-59
2023/08/19 00:58:40;;;;;;;25.83;6.60;;;;;;;23.76;100.00;100065.63;5013255;28;20087;-58
2023/08/19 01:01:05;;;;;;;4.88;4.00;;;;;;;23.40;100.00;100061.38;5019865;28;20032;-60
2023/08/19 01:03:30;;;;;;;7.25;4.60;;;;;;;23.49;100.00;100069.69;5021385;28;20372;-62
2023/08/19 01:06:09;;;;;;;4.82;3.05;;;;;;;23.65;100.00;100068.44;5021130;28;20090;-61
2023/08/19 01:08:55;;;;;;;3.70;3.15;;;;;;;23.79;100.00;100067.75;5018693;28;20120;-60
2023/08/19 01:12:01;;;;;;;4.28;2.88;;;;;;;23.81;100.00;100071.00;5017347;28;20034;-57
2023/08/19 01:14:29;;;;;;;4.15;3.85;;;;;;;23.86;100.00;100070.94;5023435;28;20494;-60
2023/08/19 01:16:56;;;;;;;4.63;3.15;;;;;;;23.71;100.00;100071.88;5016563;28;20040;-65
2023/08/19 01:19:32;;;;;;;4.30;3.47;;;;;;;23.69;100.00;100061.34;5020678;28;20171;-60
2023/08/19 01:22:04;;;;;;;3.55;2.30;;;;;;;23.68;100.00;100062.44;5018342;28;20641;-59
2023/08/19 01:24:40;;;;;;;3.47;2.30;;;;;;;23.73;100.00;100058.91;5016784;28;20037;-59
2023/08/19 01:27:20;;;;;;;4.47;2.90;;;;;;;23.63;100.00;100059.00;5016346;28;20049;-59
2023/08/19 01:29:46;;;;;;;2.40;2.05;;;;;;;23.59;100.00;100058.75;5015008;28;20071;-56
2023/08/19 01:32:11;;;;;;;2.65;2.08;;;;;;;23.73;100.00;100059.72;5020229;28;20033;-58
2023/08/19 01:34:37;;;;;;;3.45;1.85;;;;;;;23.77;100.00;100053.72;5021069;28;20037;-61
2023/08/19 01:37:07;;;;;;;1.85;1.48;;;;;;;23.70;100.00;100059.47;5015823;28;20463;-59
2023/08/19 01:39:34;;;;;;;2.05;1.83;;;;;;;23.82;100.00;100056.34;5023280;28;20167;-55
2023/08/19 01:42:00;;;;;;;3.10;2.00;;;;;;;23.78;100.00;100060.75;5013497;28;20390;-59
2023/08/19 01:44:26;;;;;;;1.95;1.63;;;;;;;23.72;100.00;100073.50;5015638;28;20033;-58
2023/08/19 01:46:51;;;;;;;2.47;1.67;;;;;;;23.72;100.00;100066.22;5013750;28;20052;-60
2023/08/19 01:49:16;;;;;;;2.67;1.98;;;;;;;23.67;100.00;100073.53;5024366;28;20514;-55
2023/08/19 01:51:42;;;;;;;4.57;1.40;;;;;;;23.39;100.00;100080.59;5014888;28;20466;-58
2023/08/19 01:54:07;;;;;;;4.05;2.42;;;;;;;23.41;100.00;100081.13;5019248;28;20040;-62
2023/08/19 01:56:33;;;;;;;1.83;1.67;;;;;;;23.51;100.00;100062.09;5019838;28;20033;-61
2023/08/19 01:58:58;;;;;;;4.10;2.03;;;;;;;23.49;100.00;100069.69;5016520;28;20083;-61
2023/08/19 02:01:24;;;;;;;5.75;2.25;;;;;;;23.49;100.00;100072.38;5012723;28;20527;-61
2023/08/19 02:03:49;;;;;;;2.63;1.92;;;;;;;23.41;100.00;100081.13;5016000;28;20039;-62
2023/08/19 02:06:14;;;;;;;2.38;1.73;;;;;;;23.40;100.00;100072.22;5023476;28;20029;-62
2023/08/19 02:08:40;;;;;;;1.92;1.83;;;;;;;23.41;100.00;100076.53;5021615;28;20030;-61
2023/08/19 02:11:05;;;;;;;6.45;1.40;;;;;;;23.37;100.00;100074.69;5022945;28;20033;-59
2023/08/19 02:13:30;;;;;;;5.45;1.98;;;;;;;23.22;100.00;100076.44;5016723;28;20494;-61
2023/08/19 02:15:56;;;;;;;4.07;1.83;;;;;;;23.37;100.00;100072.00;5020878;28;20059;-62
2023/08/19 02:18:22;;;;;;;1.40;1.35;;;;;;;23.24;100.00;100066.16;5024397;28;20039;-61
2023/08/19 02:20:47;;;;;;;1.80;1.20;;;;;;;23.13;100.00;100061.94;5020390;28;20471;-57
2023/08/19 02:23:13;;;;;;;2.97;1.48;;;;;;;22.98;100.00;100053.97;5017189;28;20025;-61
2023/08/19 02:25:38;;;;;;;3.22;1.35;;;;;;;22.83;100.00;100050.25;5018438;28;20041;-59
2023/08/19 02:28:04;;;;;;;1.95;0.80;;;;;;;22.69;100.00;100054.72;5023614;28;20031;-58
2023/08/19 02:30:31;;;;;;;2.90;1.25;;;;;;;22.54;100.00;100060.22;5020529;28;20045;-61
2023/08/19 02:32:56;;;;;;;1.70;1.48;;;;;;;22.48;100.00;100064.03;5017604;28;20033;-60
2023/08/19 02:35:22;;;;;;;1.55;1.45;;;;;;;22.58;100.00;100061.25;5022967;28;20371;-61
2023/08/19 02:37:47;;;;;;;2.65;1.65;;;;;;;22.51;100.00;100060.75;5022027;28;20717;-58
2023/08/19 02:40:13;;;;;;;1.75;1.02;;;;;;;22.39;100.00;100059.22;5020581;28;20034;-59
2023/08/19 02:42:38;;;;;;;5.60;1.63;;;;;;;22.41;100.00;100059.75;5018728;28;20057;-58
2023/08/19 02:45:04;;;;;;;2.33;1.30;;;;;;;22.43;100.00;100064.84;5017498;28;20072;-57
2023/08/19 02:47:29;;;;;;;1.65;1.48;;;;;;;22.37;100.00;100060.59;5019104;28;20049;-59
2023/08/19 02:49:54;;;;;;;3.63;1.83;;;;;;;22.36;100.00;100067.09;5026066;28;20032;-62
2023/08/19 02:52:20;;;;;;;1.27;1.00;;;;;;;22.30;100.00;100078.97;5021541;28;20045;-65
2023/08/19 02:54:45;;;;;;;3.45;1.52;;;;;;;22.25;100.00;100073.63;5017750;28;20029;-64
2023/08/19 02:57:10;;;;;;;1.90;1.25;;;;;;;22.11;100.00;100078.78;5017479;28;20052;-66
2023/08/19 02:59:36;;;;;;;3.45;0.93;;;;;;;22.16;100.00;100076.06;5019022;28;20041;-65
2023/08/19 03:02:01;;;;;;;1.88;1.15;;;;;;;22.12;100.00;100085.78;5015959;28;20045;-65
2023/08/19 03:04:26;;;;;;;3.22;1.45;;;;;;;22.01;100.00;100085.03;5018590;28;20120;-64
2023/08/19 03:06:52;;;;;;;2.65;0.65;;;;;;;21.93;100.00;100078.31;5020538;28;20108;-64
2023/08/19 03:09:17;;;;;;;2.67;1.17;;;;;;;21.83;100.00;100085.66;5016378;28;20391;-63
2023/08/19 03:11:43;;;;;;;2.88;0.90;;;;;;;21.89;100.00;100090.78;5025168;28;20083;-65
2023/08/19 03:14:08;;;;;;;3.88;1.15;;;;;;;21.80;100.00;100087.00;5018324;28;20119;-65
2023/08/19 03:16:33;;;;;;;3.30;1.58;;;;;;;21.91;100.00;100080.47;5024881;28;20041;-65
2023/08/19 03:18:59;;;;;;;0.50;0.28;;;;;;;21.96;100.00;100091.25;5021479;28;20033;-64
2023/08/19 03:21:24;;;;;;;4.28;1.30;;;;;;;21.96;100.00;100083.16;5018107;28;20120;-64
2023/08/19 03:23:50;;;;;;;1.27;0.63;;;;;;;21.90;100.00;100086.97;5019368;28;20032;-64
2023/08/19 03:26:15;;;;;;;3.28;1.25;;;;;;;21.82;100.00;100074.06;5014941;28;20022;-55
2023/08/19 03:28:40;;;;;;;0.50;0.50;;;;;;;21.86;100.00;100096.69;5017719;28;20052;-59
2023/08/19 03:31:10;;;;;;;1.83;0.68;;;;;;;21.85;100.00;100103.19;5015249;28;20464;-56
2023/08/19 03:33:35;;;;;;;1.75;0.40;;;;;;;21.83;100.00;100104.53;5023432;28;20459;-62
2023/08/19 03:36:00;;;;;;;1.40;0.32;;;;;;;21.66;100.00;100099.44;5030878;28;20029;-60
2023/08/19 03:38:26;;;;;;;4.78;0.50;;;;;;;21.68;100.00;100097.28;5018565;28;20072;-61
2023/08/19 03:40:52;;;;;;;1.45;0.70;;;;;;;21.71;100.00;100107.53;5021703;28;20115;-60
2023/08/19 03:43:17;;;;;;;7.30;1.02;;;;;;;21.70;100.00;100101.34;5022854;28;20038;-61
2023/08/19 03:45:42;;;;;;;4.82;0.90;;;;;;;21.66;100.00;100102.16;5021827;28;20037;-61
2023/08/19 03:48:08;;;;;;;7.32;0.70;;;;;;;21.53;100.00;100101.66;5026432;28;20024;-61
2023/08/19 03:50:33;;;;;;;7.57;1.85;;;;;;;21.52;100.00;100105.41;5022484;28;20406;-56
2023/08/19 03:52:58;;;;;;;4.05;0.55;;;;;;;21.36;100.00;100109.19;5023350;28;20070;-60
2023/08/19 03:55:24;;;;;;;2.42;0.38;;;;;;;21.31;100.00;100109.19;5028615;28;20033;-61
2023/08/19 03:57:51;;;;;;;4.28;1.15;;;;;;;21.22;100.00;100111.66;5021489;28;20021;-59
2023/08/19 04:00:16;;;;;;;8.43;0.88;;;;;;;21.11;100.00;100118.91;5019805;28;20026;-61
2023/08/19 04:02:42;;;;;;;6.90;1.45;;;;;;;21.29;100.00;100114.84;5021671;28;20099;-59
2023/08/19 04:05:09;;;;;;;3.92;0.90;;;;;;;21.24;100.00;100114.84;5025285;28;20040;-59
2023/08/19 04:07:35;;;;;;;8.02;1.65;;;;;;;21.30;100.00;100119.19;5025025;28;20537;-61
2023/08/19 04:10:00;;;;;;;6.95;1.70;;;;;;;21.35;100.00;100126.47;5019479;28;20160;-60
2023/08/19 04:12:26;;;;;;;7.78;1.85;;;;;;;21.28;100.00;100131.31;5025750;28;20087;-54
2023/08/19 04:14:52;;;;;;;2.28;0.30;;;;;;;21.28;100.00;100137.50;5025453;28;20479;-58
2023/08/19 04:17:18;;;;;;;8.88;0.77;;;;;;;21.27;100.00;100143.16;5018312;28;20540;-59
2023/08/19 04:19:44;;;;;;;5.35;0.93;;;;;;;21.28;100.00;100142.09;5024863;28;20039;-59
2023/08/19 04:22:14;;;;;;;5.13;1.67;;;;;;;21.29;100.00;100141.00;5017841;28;20025;-56
2023/08/19 04:24:39;;;;;;;16.58;1.88;;;;;;;21.37;100.00;100145.84;5022532;28;20370;-61
2023/08/19 04:27:05;;;;;;;7.75;1.50;;;;;;;21.30;100.00;100135.38;5022339;28;20197;-56
2023/08/19 04:29:32;;;;;;;5.80;0.93;;;;;;;21.37;100.00;100142.34;5023017;28;20038;-58
2023/08/19 04:31:59;;;;;;;6.05;0.93;;;;;;;21.36;100.00;100149.66;5022963;28;20025;-57
2023/08/19 04:34:25;;;;;;;18.75;2.55;;;;;;;20.87;100.00;100152.84;5019375;28;20190;-60
2023/08/19 04:36:50;;;;;;;11.05;0.60;;;;;;;21.05;100.00;100143.44;5023464;28;20083;-64
2023/08/19 04:39:16;;;;;;;8.98;1.58;;;;;;;21.21;100.00;100145.06;5016226;28;20034;-64
2023/08/19 04:41:41;;;;;;;6.63;1.10;;;;;;;21.32;100.00;100143.16;5021350;28;20100;-61
2023/08/19 04:44:06;;;;;;;4.78;0.98;;;;;;;21.03;100.00;100141.00;5030005;28;20036;-58
2023/08/19 04:46:32;;;;;;;8.65;1.30;;;;;;;21.03;100.00;100151.78;5030914;28;20041;-60
2023/08/19 04:48:57;;;;;;;9.23;1.63;;;;;;;20.87;100.00;100160.94;5026047;28;20029;-61
2023/08/19 04:51:22;;;;;;;14.32;1.90;;;;;;;20.77;100.00;100159.03;5016540;28;20454;-57
2023/08/19 04:53:48;;;;;;;3.92;0.50;;;;;;;20.75;100.00;100174.63;5019274;28;20119;-63
2023/08/19 04:56:13;;;;;;;12.35;1.63;;;;;;;20.78;100.00;100171.44;5023928;28;20025;-63
2023/08/19 04:58:39;;;;;;;7.57;1.98;;;;;;;20.81;100.00;100175.50;5015863;28;20085;-60
2023/08/19 05:01:04;;;;;;;11.57;1.10;;;;;;;20.91;100.00;100175.50;5022325;28;20041;-58
2023/08/19 05:03:30;;;;;;;5.80;0.98;;;;;;;21.00;100.00;100184.66;5019450;28;20123;-61
2023/08/19 05:05:55;;;;;;;9.95;1.50;;;;;;;21.00;100.00;100179.28;5019252;28;20064;-57
2023/08/19 05:08:20;;;;;;;13.95;2.13;;;;;;;20.94;100.00;100190.34;5019895;28;20572;-60
2023/08/19 05:10:46;;;;;;;7.05;1.00;;;;;;;20.91;100.00;100183.59;5024755;28;20414;-60
2023/08/19 05:13:11;;;;;;;7.43;1.73;;;;;;;20.99;100.00;100187.63;5015993;28;20048;-60
2023/08/19 05:15:38;;;;;;;9.52;0.88;;;;;;;17.97;100.00;100228.91;5022648;28;20123;-60
2023/08/19 05:18:04;;;;;;;9.57;1.65;;;;;;;17.18;100.00;100272.59;5013310;28;20029;-61
2023/08/19 05:20:29;;;;;;;11.50;1.05;;;;;;;17.02;100.00;100284.09;5018772;28;20038;-61
2023/08/19 05:22:55;;;;;;;9.65;1.85;;;;;;;16.97;100.00;100290.16;5036913;28;20041;-58
2023/08/19 05:25:20;;;;;;;6.30;0.80;;;;;;;17.07;100.00;100289.53;5017817;28;20033;-58
2023/08/19 05:27:45;;;;;;;8.85;1.02;;;;;;;17.00;100.00;100291.53;5020025;28;20105;-59
2023/08/19 05:30:11;;;;;;;8.30;1.38;;;;;;;19.86;100.00;100240.97;5025184;28;20068;-59
2023/08/19 05:32:38;;;;;;;9.02;2.15;;;;;;;20.79;100.00;100223.44;5024183;28;20040;-59
2023/08/19 05:35:03;;;;;;;8.43;0.93;;;;;;;21.06;100.00;100224.00;5017131;28;20484;-60
2023/08/19 05:37:29;;;;;;;12.45;2.40;;;;;;;21.13;100.00;100219.19;5019906;28;20517;-59
2023/08/19 05:39:54;;;;;;;2.92;1.05;;;;;;;21.10;100.00;100224.31;5020389;28;20033;-57
2023/08/19 05:42:19;;;;;;;12.35;1.63;;;;;;;21.23;100.00;100231.06;5023472;28;20563;-58
2023/08/19 05:44:45;;;;;;;6.00;1.23;;;;;;;21.32;100.00;100229.44;5020869;28;20551;-57
2023/08/19 05:47:10;;;;;;;5.10;1.00;;;;;;;21.39;100.00;100229.22;5020687;28;20460;-61
2023/08/19 05:49:36;;;;;;;6.72;1.42;;;;;;;21.24;100.00;100233.47;5028316;28;20087;-61
2023/08/19 05:52:01;;;;;;;7.03;0.82;;;;;;;21.36;100.00;100225.16;5023033;28;20044;-60
2023/08/19 05:54:27;;;;;;;3.30;1.30;;;;;;;21.42;100.00;100234.06;5026460;28;20104;-59
2023/08/19 05:56:53;;;;;;;8.43;1.92;;;;;;;21.53;100.00;100228.44;5018235;28;20461;-59
2023/08/19 05:59:18;;;;;;;6.20;1.13;;;;;;;21.62;100.00;100238.69;5019572;28;20115;-58
2023/08/19 06:01:43;;;;;;;2.92;0.68;;;;;;;21.56;100.00;100241.38;5013247;28;20603;-61
2023/08/19 06:04:08;;;;;;;7.68;1.58;;;;;;;21.77;100.00;100252.16;5027489;28;20040;-60
2023/08/19 06:06:34;;;;;;;9.55;0.95;;;;;;;21.68;100.00;100254.56;5017657;28;20033;-60
2023/08/19 06:08:59;;;;;;;7.70;0.98;;;;;;;21.86;100.00;100255.91;5024484;28;20068;-61
2023/08/19 06:11:24;;;;;;;6.85;0.90;;;;;;;21.64;100.00;100264.31;5022916;28;20498;-54
2023/08/19 06:13:50;;;;;;;9.13;2.15;;;;;;;21.45;100.00;100268.59;5021598;28;20540;-57
2023/08/19 06:16:15;;;;;;;8.63;0.95;;;;;;;21.58;100.00;100281.56;5019396;28;20029;-63
2023/08/19 06:18:41;;;;;;;11.68;1.48;;;;;;;21.66;100.00;100283.72;5019282;28;20029;-63
2023/08/19 06:21:06;;;;;;;4.80;0.55;;;;;;;21.67;100.00;100288.03;5039060;28;20091;-64
2023/08/19 06:23:32;;;;;;;11.50;1.30;;;;;;;21.60;100.00;100287.50;5016708;28;20045;-63
2023/08/19 06:25:58;;;;;;;8.88;1.30;;;;;;;21.71;100.00;100286.44;5028103;28;20383;-64
2023/08/19 06:28:24;;;;;;;5.13;1.95;;;;;;;21.73;100.00;100291.53;5017215;28;20030;-64
2023/08/19 06:30:50;;;;;;;5.10;1.48;;;;;;;21.70;100.00;100302.88;5020769;28;20042;-58
2023/08/19 06:33:16;;;;;;;6.85;1.52;;;;;;;21.72;100.00;100298.84;5011331;28;20129;-58
2023/08/19 06:35:48;;;;;;;8.38;0.80;;;;;;;21.94;100.00;100297.75;5020648;28;20112;-58
2023/08/19 06:38:20;;;;;;;;;;;;;;;22.06;100.00;100300.97;5020493;28;20155;-59
2023/08/19 06:41:04;;;;;;;8.55;1.50;;;;;;;21.92;100.00;100305.31;5020733;28;19920;-58
2023/08/19 06:43:31;;;;;;;4.85;0.85;;;;;;;21.95;100.00;100310.97;5021439;28;20042;-55
2023/08/19 06:45:57;;;;;;;4.78;1.17;;;;;;;22.06;100.00;100317.19;5027339;28;20033;-60
2023/08/19 06:48:23;;;;;;;7.40;0.75;;;;;;;22.06;100.00;100313.69;5021366;28;20470;-59
2023/08/19 06:50:53;;;;;;;7.32;1.35;;;;;;;22.28;100.00;100319.63;5026089;28;20474;-60
2023/08/19 06:53:19;;;;;;;8.90;1.48;;;;;;;22.33;100.00;100316.91;5021169;28;20049;-58
2023/08/19 06:55:54;;;;;;;5.40;0.88;;;;;;;22.43;100.00;100330.41;5027393;28;20120;-59
2023/08/19 06:58:26;;;;;;;20.92;2.65;;;;;;;22.43;100.00;100324.16;5022404;28;20025;-60
2023/08/19 07:00:59;;;;;;;10.82;1.15;;;;;;;22.34;100.00;100325.81;5021346;28;20041;-57
2023/08/19 07:03:27;;;;;;;4.70;0.57;;;;;;;22.28;100.00;100332.28;5023019;28;20430;-60
2023/08/19 07:05:55;;;;;;;12.30;0.90;;;;;;;22.34;100.00;100337.44;5024715;28;20068;-60
2023/08/19 07:08:21;;;;;;;11.00;1.10;;;;;;;22.39;100.00;100340.13;5021236;28;20030;-57
2023/08/19 07:10:46;;;;;;;8.07;2.20;;;;;;;22.39;100.00;100345.53;5020467;28;20052;-57
2023/08/19 07:13:12;;;;;;;7.47;2.45;;;;;;;22.50;100.00;100354.41;5018745;28;20033;-59
2023/08/19 07:15:44;;;;;;;4.90;1.48;;;;;;;22.34;100.00;100359.03;5025100;28;20045;-56
2023/08/19 07:18:16;;;;;;;11.77;2.00;;;;;;;22.27;100.00;100369.31;5022743;28;20486;-58
2023/08/19 07:20:42;;;;;;;8.18;2.05;;;;;;;22.29;100.00;100371.75;5021156;28;20125;-58
2023/08/19 07:23:08;;;;;;;6.45;1.40;;;;;;;22.30;100.00;100373.34;5023308;28;20033;-56
2023/08/19 07:25:34;;;;;;;7.60;1.30;;;;;;;22.32;100.00;100377.41;5022099;28;20051;-53
2023/08/19 07:28:03;;;;;;;3.97;0.52;;;;;;;22.31;100.00;100375.00;5024257;28;20025;-57
2023/08/19 07:30:29;;;;;;;19.83;2.88;;;;;;;22.39;100.00;100377.94;5027612;28;20060;-57
2023/08/19 07:32:54;;;;;;;10.02;1.33;;;;;;;22.38;100.00;100387.13;5025045;28;20036;-60
2023/08/19 07:35:20;;;;;;;5.72;0.47;;;;;;;22.18;100.00;100392.50;5027988;28;20112;-57
2023/08/19 07:37:45;;;;;;;4.72;1.23;;;;;;;22.24;100.00;100394.16;5022004;28;20394;-57
2023/08/19 07:40:11;;;;;;;6.30;1.00;;;;;;;22.27;100.00;100399.00;5022368;28;20024;-57
2023/08/19 07:42:37;;;;;;;5.20;0.68;;;;;;;22.35;100.00;100411.97;5020337;28;20148;-56
2023/08/19 07:45:02;;;;;;;11.70;1.77;;;;;;;22.25;100.00;100416.56;5022301;28;20543;-58
2023/08/19 07:47:28;;;;;;;2.60;0.80;;;;;;;22.28;100.00;100419.56;5026179;28;20032;-55
2023/08/19 07:49:53;;;;;;;12.40;2.28;;;;;;;22.18;100.00;100424.91;5017628;28;20029;-60
2023/08/19 07:52:18;;;;;;;9.90;1.30;;;;;;;22.26;100.00;100416.31;5014947;28;20030;-58
2023/08/19 07:54:43;;;;;;;10.27;1.95;;;;;;;22.14;100.00;100416.53;5027853;28;20392;-57
2023/08/19 07:57:09;;;;;;;5.30;1.85;;;;;;;22.52;100.00;100427.09;5019699;28;20033;-53
2023/08/19 07:59:34;;;;;;;4.05;0.60;;;;;;;22.69;100.00;100424.09;5015204;28;20179;-60
2023/08/19 08:01:59;;;;;;;9.82;1.40;;;;;;;22.69;100.00;100432.19;5027383;28;20502;-61
2023/08/19 08:04:25;;;;;;;5.30;0.75;;;;;;;22.82;100.00;100443.28;5022766;28;20049;-56
2023/08/19 08:06:50;;;;;;;5.97;0.93;;;;;;;22.79;100.00;100438.38;5026362;28;20076;-56
2023/08/19 08:09:16;;;;;;;4.28;0.85;;;;;;;22.77;100.00;100443.28;5026430;28;20507;-58
2023/08/19 08:11:43;;;;;;;5.22;1.58;;;;;;;22.95;100.00;100449.16;5027886;28;20064;-56
2023/08/19 08:14:09;;;;;;;6.50;1.70;;;;;;;23.14;100.00;100454.84;5027612;28;20682;-56
2023/08/19 08:16:34;;;;;;;3.60;0.70;;;;;;;23.26;100.00;100448.03;5023895;28;20053;-54
2023/08/19 08:18:59;;;;;;;9.20;0.50;;;;;;;23.37;100.00;100456.13;5022286;28;20060;-58
2023/08/19 08:21:25;;;;;;;7.63;0.77;;;;;;;23.32;100.00;100458.84;5013227;28;20421;-58
2023/08/19 08:23:50;;;;;;;3.25;1.38;;;;;;;23.19;100.00;100461.03;5028675;28;20061;-58
2023/08/19 08:26:16;;;;;;;8.48;0.82;;;;;;;23.04;100.00;100463.78;5019521;28;20443;-59
2023/08/19 08:28:42;;;;;;;9.05;1.67;;;;;;;23.07;100.00;100463.22;5024157;28;20079;-57
2023/08/19 08:31:08;;;;;;;7.60;0.57;;;;;;;23.14;100.00;100469.16;5022280;28;20037;-54
2023/08/19 08:33:33;;;;;;;5.35;0.38;;;;;;;23.32;100.00;100480.47;5020120;28;20116;-52
2023/08/19 08:36:00;;;;;;;5.00;1.73;;;;;;;23.40;100.00;100472.59;5014269;28;20379;-57
2023/08/19 08:38:26;;;;;;;2.95;0.68;;;;;;;23.30;100.00;100473.44;5012834;28;20398;-57
2023/08/19 08:40:51;;;;;;;7.50;0.85;;;;;;;23.19;100.00;100474.56;5019029;28;20095;-53
2023/08/19 08:43:16;;;;;;;5.78;1.55;;;;;;;23.19;100.00;100474.56;5018422;28;20368;-61
2023/08/19 08:45:42;;;;;;;3.33;1.08;;;;;;;22.83;100.00;100476.50;5020040;28;20041;-61
2023/08/19 08:48:10;;;;;;;5.95;1.38;;;;;;;22.80;100.00;100477.06;5026910;28;20021;-62
2023/08/19 08:50:35;;;;;;;10.52;1.45;;;;;;;23.00;100.00;100479.75;5021810;28;20036;-63
2023/08/19 08:53:01;;;;;;;3.42;1.15;;;;;;;23.34;100.00;100481.81;5021273;28;20029;-62
2023/08/19 08:55:27;;;;;;;4.05;1.20;;;;;;;23.37;100.00;100478.56;5025777;28;20053;-62
2023/08/19 08:57:54;;;;;;;5.82;1.13;;;;;;;23.34;100.00;100479.13;5016595;28;20484;-55
2023/08/19 09:00:19;;;;;;;5.38;0.68;;;;;;;23.52;100.00;100480.41;5012783;28;20380;-62
2023/08/19 09:02:46;;;;;;;5.85;1.05;;;;;;;23.67;100.00;100488.47;5019353;28;20049;-62
2023/08/19 09:05:13;;;;;;;4.00;0.50;;;;;;;23.77;100.00;100493.00;5017611;28;20218;-63
2023/08/19 09:07:40;;;;;;;2.67;0.68;;;;;;;23.72;100.00;100493.03;5019289;28;20044;-56
2023/08/19 09:10:13;;;;;;;5.05;1.08;;;;;;;23.32;100.00;100488.59;5018442;28;20076;-56
2023/08/19 09:12:42;;;;;;;3.83;1.00;;;;;;;23.51;100.00;100500.41;5022664;28;20029;-61
2023/08/19 09:15:09;;;;;;;5.72;1.65;;;;;;;23.89;100.00;100492.69;5018853;28;20030;-59
2023/08/19 09:17:35;;;;;;;4.90;0.40;;;;;;;24.37;100.00;100499.16;5014711;28;20479;-54
2023/08/19 09:20:03;;;;;;;10.13;1.27;;;;;;;24.03;100.00;100503.72;5022094;28;20160;-54
2023/08/19 09:22:29;;;;;;;2.83;0.85;;;;;;;24.01;100.00;100497.75;5023887;28;20033;-60
2023/08/19 09:24:54;;;;;;;5.28;0.70;;;;;;;24.17;100.00;100497.38;5022027;28;20163;-58
2023/08/19 09:27:29;;;;;;;7.68;1.65;;;;;;;24.37;100.00;100501.06;5013055;28;20391;-57
2023/08/19 09:29:54;;;;;;;2.33;0.45;;;;;;;24.99;100.00;100510.31;5030504;28;20397;-54
2023/08/19 09:32:41;;;;;;;1.55;0.13;;;;;;;25.40;100.00;100512.59;5015028;28;20029;-57
2023/08/19 09:35:14;;;;;;;3.45;0.93;;;;;;;25.55;100.00;100508.06;5013364;28;20077;-63
2023/08/19 09:37:41;;;;;;;2.17;0.10;;;;;;;25.59;100.00;100504.50;5008510;28;20057;-59
2023/08/19 09:40:08;;;;;;;2.33;0.50;;;;;;;25.65;100.00;100516.09;5014924;28;20034;-59
2023/08/19 09:42:35;;;;;;;3.65;1.20;;;;;;;25.55;100.00;100514.31;5018835;28;20494;-62
2023/08/19 09:45:01;;;;;;;3.30;0.40;;;;;;;25.32;100.00;100515.94;5019143;28;21244;-57
2023/08/19 09:47:28;;;;;;;6.13;1.45;;;;;;;25.38;100.00;100514.78;5013073;28;20026;-58
2023/08/19 09:49:53;;;;;;;5.28;1.38;;;;;;;25.44;100.00;100518.25;5030345;28;20114;-57
2023/08/19 09:52:18;;;;;;;4.25;0.40;;;;;;;25.44;100.00;100526.41;5019311;28;20525;-58
2023/08/19 09:54:54;;;;;;;3.13;0.45;;;;;;;25.54;100.00;100528.19;5013046;28;20037;-55
2023/08/19 09:57:34;;;;;;;2.65;0.20;;;;;;;25.76;100.00;100533.84;5013091;28;20037;-61
2023/08/19 10:00:00;;;;;;;1.42;0.30;;;;;;;25.99;97.32;100534.16;5027050;28;20022;-57
2023/08/19 10:02:27;;;;;;;5.57;1.02;;;;;;;25.83;100.00;100528.88;5013350;28;20048;-53
2023/08/19 10:04:53;;;;;;;1.88;0.15;;;;;;;25.89;100.00;100530.47;5013371;28;20073;-57
2023/08/19 10:07:22;;;;;;;1.95;0.20;;;;;;;26.19;99.34;100533.06;5024383;28;20104;-57
2023/08/19 10:09:48;;;;;;;2.88;0.05;;;;;;;26.36;99.16;100537.94;5015029;28;20028;-57
2023/08/19 10:12:15;;;;;;;4.25;0.40;;;;;;;26.37;100.00;100534.94;5016649;28;20109;-59
2023/08/19 10:14:46;;;;;;;2.75;0.20;;;;;;;26.37;98.02;100547.75;5014982;28;20034;-55
2023/08/19 10:17:12;;;;;;;;;;;;;;;26.50;94.73;100538.84;5012652;28;20048;-59
2023/08/19 10:19:45;;;;;;;2.20;0.20;;;;;;;26.25;96.51;100553.59;5020212;28;19929;-55
2023/08/19 10:22:14;;;;;;;1.15;0.60;;;;;;;26.11;93.92;100554.34;5010816;28;20048;-54
2023/08/19 10:24:41;;;;;;;2.53;0.20;;;;;;;26.08;96.00;100548.69;5010024;28;20037;-57
2023/08/19 10:27:15;;;;;;;6.28;0.35;;;;;;;26.40;92.27;100539.00;5019382;28;20033;-53
2023/08/19 10:29:42;;;;;;;1.40;0.08;;;;;;;26.61;94.47;100537.59;5016092;28;20029;-64
2023/08/19 10:32:28;;;;;;;8.70;1.48;;;;;;;27.04;92.90;100542.03;5018311;28;20108;-56
2023/08/19 10:35:04;;;;;;;2.95;0.20;;;;;;;26.90;89.92;100555.59;5015754;28;20043;-61
2023/08/19 10:37:29;;;;;;;2.17;0.20;;;;;;;27.19;93.51;100558.91;5016110;28;20101;-53
2023/08/19 10:40:22;;;;;;;2.10;0.28;;;;;;;27.47;91.00;100550.78;5014148;28;20044;-58
2023/08/19 10:43:00;;;;;;;0.73;0.30;;;;;;;27.21;90.10;100571.41;5021183;28;20081;-55
2023/08/19 10:45:34;;;;;;;2.50;1.05;;;;;;;27.05;95.05;100570.84;5013130;28;20029;-55
2023/08/19 10:48:00;;;;;;;6.75;0.77;;;;;;;27.37;94.03;100568.13;5016741;28;20034;-55
2023/08/19 10:50:26;;;;;;;1.60;0.50;;;;;;;27.52;93.39;100569.75;5011377;28;20037;-56
2023/08/19 10:53:04;;;;;;;2.50;0.55;;;;;;;27.66;90.06;100574.38;5020560;28;20055;-55
2023/08/19 10:55:55;;;;;;;5.70;0.32;;;;;;;27.84;92.21;100578.94;5020137;28;20053;-54
2023/08/19 10:58:22;;;;;;;3.25;0.38;;;;;;;27.45;90.12;100577.50;5019641;28;20072;-58
2023/08/19 11:00:48;;;;;;;2.53;0.40;;;;;;;27.42;92.64;100580.81;5013276;28;20123;-58
2023/08/19 11:03:15;;;;;;;1.88;0.40;;;;;;;27.51;94.02;100584.44;5012440;28;20562;-52
2023/08/19 11:05:52;;;;;;;2.63;0.30;;;;;;;26.92;90.36;100588.75;5016086;28;20033;-53
2023/08/19 11:08:18;;;;;;;4.90;0.60;;;;;;;26.45;93.41;100599.50;5005663;28;20448;-55
2023/08/19 11:10:45;;;;;;;2.50;0.10;;;;;;;26.68;94.41;100599.75;5014915;28;20116;-51
2023/08/19 11:13:11;;;;;;;3.30;0.47;;;;;;;26.45;93.27;100596.00;5037382;28;20502;-54
2023/08/19 11:15:38;;;;;;;5.10;1.55;;;;;;;26.42;92.13;100602.81;5020797;28;20045;-53